createdAt,value
2018-03-29T00:00:22.092Z,91522.75
2018-03-29T00:01:11.192Z,91526.09
2018-03-29T00:02:00.236Z,91523.86
2018-03-29T00:02:49.277Z,91517.25
2018-03-29T00:03:38.328Z,91525.80
2018-03-29T00:04:27.413Z,91524.20
2018-03-29T00:05:16.492Z,91520.45
2018-03-29T00:06:05.569Z,91513.92
2018-03-29T00:06:54.740Z,91513.06
2018-03-29T00:07:43.821Z,91514.94
2018-03-29T00:08:32.935Z,91520.94
2018-03-29T00:09:22.011Z,91516.41
2018-03-29T00:10:11.139Z,91518.50
2018-03-29T00:11:00.194Z,91520.27
2018-03-29T00:11:49.358Z,91513.57
2018-03-29T00:12:38.404Z,91518.34
2018-03-29T00:13:27.506Z,91518.10
2018-03-29T00:14:16.551Z,91521.98
2018-03-29T00:15:05.627Z,91520.06
2018-03-29T00:15:54.695Z,91527.89
2018-03-29T00:16:43.764Z,91528.19
2018-03-29T00:17:32.876Z,91530.89
2018-03-29T00:18:21.927Z,91533.38
2018-03-29T00:19:10.987Z,91537.70
2018-03-29T00:20:00.081Z,91541.87
2018-03-29T00:20:49.135Z,91540.29
2018-03-29T00:21:38.216Z,91543.03
2018-03-29T00:22:27.264Z,91546.91
2018-03-29T00:23:16.313Z,91542.44
2018-03-29T00:24:05.382Z,91547.67
2018-03-29T00:24:54.441Z,91541.88
2018-03-29T00:25:43.532Z,91548.64
2018-03-29T00:26:32.597Z,91549.81
2018-03-29T00:27:21.664Z,91550.63
2018-03-29T00:28:10.786Z,91554.39
2018-03-29T00:28:59.849Z,91559.54
2018-03-29T00:29:48.902Z,91560.77
2018-03-29T00:30:37.955Z,91567.78
2018-03-29T00:31:27.123Z,91564.02
2018-03-29T00:32:16.205Z,91565.14
2018-03-29T00:33:05.356Z,91560.52
2018-03-29T00:33:54.405Z,91557.98
2018-03-29T00:34:43.457Z,91562.25
2018-03-29T00:35:32.506Z,91561.58
2018-03-29T00:36:21.563Z,91563.06
2018-03-29T00:37:10.733Z,91558.89
2018-03-29T00:37:59.798Z,91562.80
2018-03-29T00:38:48.848Z,91561.38
2018-03-29T00:39:37.899Z,91561.70
2018-03-29T00:40:26.953Z,91560.73
2018-03-29T00:41:16.022Z,91552.70
2018-03-29T00:42:05.083Z,91554.36
2018-03-29T00:42:54.287Z,91557.23
2018-03-29T00:43:43.437Z,91551.84
2018-03-29T00:44:32.546Z,91552.38
2018-03-29T00:45:21.599Z,91546.13
2018-03-29T00:46:10.658Z,91547.11
2018-03-29T00:46:59.713Z,91543.50
2018-03-29T00:47:48.776Z,91537.16
2018-03-29T00:48:37.938Z,91535.67
2018-03-29T00:49:26.996Z,91534.30
2018-03-29T00:50:16.059Z,91536.42
2018-03-29T00:51:05.139Z,91531.59
2018-03-29T00:51:54.242Z,91527.23
2018-03-29T00:52:44.703Z,91534.67
2018-03-29T00:53:44.639Z,91528.00
2018-03-29T00:54:33.697Z,91527.11
2018-03-29T00:55:22.836Z,91526.40
2018-03-29T00:56:11.886Z,91526.25
2018-03-29T00:57:00.941Z,91519.84
2018-03-29T00:57:50.030Z,91518.89
2018-03-29T00:58:39.146Z,91521.00
2018-03-29T00:59:28.200Z,91518.89
2018-03-29T01:00:17.257Z,91519.79
2018-03-29T01:01:06.380Z,91521.00
2018-03-29T01:01:55.432Z,91525.23
2018-03-29T01:02:44.485Z,91521.28
2018-03-29T01:03:33.545Z,91525.28
2018-03-29T01:04:22.607Z,91523.85
2018-03-29T01:05:11.673Z,91521.20
2018-03-29T01:06:00.736Z,91524.77
2018-03-29T01:06:49.948Z,91520.73
2018-03-29T01:07:39.023Z,91521.44
2018-03-29T01:08:33.926Z,91517.30
2018-03-29T01:09:22.976Z,91525.23
2018-03-29T01:10:12.033Z,91529.87
2018-03-29T01:11:01.111Z,91532.67
2018-03-29T01:11:50.530Z,91528.19
2018-03-29T01:12:39.586Z,91538.15
2018-03-29T01:13:28.641Z,91536.64
2018-03-29T01:14:17.781Z,91534.92
2018-03-29T01:15:07.198Z,91543.17
2018-03-29T01:15:56.273Z,91537.39
2018-03-29T01:16:45.353Z,91535.56
2018-03-29T01:17:34.452Z,91529.09
2018-03-29T01:18:23.506Z,91529.78
2018-03-29T01:19:12.562Z,91534.88
2018-03-29T01:20:01.617Z,91536.81
2018-03-29T01:20:50.680Z,91530.94
2018-03-29T01:21:39.730Z,91543.02
2018-03-29T01:22:28.779Z,91539.31
2018-03-29T01:23:17.965Z,91547.81
2018-03-29T01:24:07.024Z,91550.47
2018-03-29T01:24:56.081Z,91549.10
2018-03-29T01:25:45.129Z,91549.16
2018-03-29T01:26:34.182Z,91551.70
2018-03-29T01:27:23.254Z,91552.82
2018-03-29T01:28:12.308Z,91545.75
2018-03-29T01:29:01.517Z,91544.43
2018-03-29T01:29:50.567Z,91541.90
2018-03-29T01:30:39.637Z,91540.72
2018-03-29T01:31:28.698Z,91544.34
2018-03-29T01:32:29.373Z,91544.19
2018-03-29T01:33:18.422Z,91536.50
2018-03-29T01:34:07.518Z,91536.23
2018-03-29T01:34:56.579Z,91527.48
2018-03-29T01:35:45.646Z,91534.23
2018-03-29T01:36:34.723Z,91536.07
2018-03-29T01:37:23.787Z,91534.59
2018-03-29T01:38:12.840Z,91536.45
2018-03-29T01:39:01.902Z,91533.66
2018-03-29T01:39:51.014Z,91533.11
2018-03-29T01:40:40.065Z,91534.05
2018-03-29T01:41:29.120Z,91532.67
2018-03-29T01:42:18.172Z,91528.73
2018-03-29T01:43:07.221Z,91529.83
2018-03-29T01:43:56.278Z,91525.78
2018-03-29T01:44:45.332Z,91522.01
2018-03-29T01:45:34.484Z,91518.67
2018-03-29T01:46:23.539Z,91522.00
2018-03-29T01:47:12.594Z,91517.08
2018-03-29T01:48:01.649Z,91519.45
2018-03-29T01:48:50.701Z,91521.20
2018-03-29T01:49:39.749Z,91508.80
2018-03-29T01:50:28.811Z,91508.45
2018-03-29T01:51:17.904Z,91508.80
2018-03-29T01:52:06.965Z,91506.17
2018-03-29T01:52:56.015Z,91499.53
2018-03-29T01:53:45.063Z,91496.20
2018-03-29T01:54:34.116Z,91496.20
2018-03-29T01:55:23.171Z,91492.61
2018-03-29T01:56:12.227Z,91489.69
2018-03-29T01:57:01.314Z,91489.84
2018-03-29T01:57:50.364Z,91496.72
2018-03-29T01:58:39.430Z,91496.06
2018-03-29T01:59:28.480Z,91492.94
2018-03-29T02:00:17.533Z,91497.81
2018-03-29T02:01:06.590Z,91497.31
2018-03-29T02:01:55.645Z,91500.20
2018-03-29T02:02:44.794Z,91497.13
2018-03-29T02:03:33.849Z,91499.16
2018-03-29T02:04:22.902Z,91499.23
2018-03-29T02:05:12.032Z,91498.68
2018-03-29T02:06:01.100Z,91495.52
2018-03-29T02:06:50.176Z,91499.38
2018-03-29T02:07:39.230Z,91496.53
2018-03-29T02:08:31.362Z,91502.68
2018-03-29T02:09:20.409Z,91498.72
2018-03-29T02:10:09.465Z,91495.62
2018-03-29T02:10:58.522Z,91498.48
2018-03-29T02:11:47.579Z,91501.06
2018-03-29T02:12:36.629Z,91503.50
2018-03-29T02:13:25.686Z,91495.36
2018-03-29T02:14:14.797Z,91505.02
2018-03-29T02:15:03.888Z,91500.44
2018-03-29T02:15:52.988Z,91504.09
2018-03-29T02:16:42.050Z,91496.01
2018-03-29T02:17:33.737Z,91502.33
2018-03-29T02:18:22.831Z,91496.30
2018-03-29T02:19:11.909Z,91492.67
2018-03-29T02:20:00.964Z,91500.38
2018-03-29T02:20:50.022Z,91494.05
2018-03-29T02:21:39.184Z,91498.02
2018-03-29T02:22:28.246Z,91495.87
2018-03-29T02:23:17.303Z,91486.33
2018-03-29T02:24:06.373Z,91486.88
2018-03-29T02:24:55.445Z,91486.19
2018-03-29T02:25:44.504Z,91489.67
2018-03-29T02:26:33.552Z,91486.72
2018-03-29T02:27:22.652Z,91487.17
2018-03-29T02:28:11.721Z,91486.54
2018-03-29T02:29:00.776Z,91489.09
2018-03-29T02:29:49.834Z,91489.89
2018-03-29T02:30:38.898Z,91493.08
2018-03-29T02:31:27.953Z,91486.45
2018-03-29T02:32:17.027Z,91492.10
2018-03-29T02:33:06.270Z,91494.98
2018-03-29T02:33:55.340Z,91497.09
2018-03-29T02:34:46.769Z,91490.88
2018-03-29T02:35:35.938Z,91484.67
2018-03-29T02:36:25.006Z,91487.48
2018-03-29T02:37:14.061Z,91487.53
2018-03-29T02:38:03.121Z,91483.28
2018-03-29T02:38:52.178Z,91484.97
2018-03-29T02:39:41.238Z,91484.75
2018-03-29T02:40:30.297Z,91483.22
2018-03-29T02:41:19.407Z,91487.27
2018-03-29T02:42:08.462Z,91483.35
2018-03-29T02:42:57.518Z,91486.45
2018-03-29T02:43:46.577Z,91484.02
2018-03-29T02:44:35.645Z,91481.80
2018-03-29T02:45:24.711Z,91486.43
2018-03-29T02:46:13.880Z,91486.30
2018-03-29T02:47:02.932Z,91483.55
2018-03-29T02:47:51.990Z,91478.98
2018-03-29T02:48:41.047Z,91476.81
2018-03-29T02:49:30.101Z,91471.52
2018-03-29T02:50:19.158Z,91471.98
2018-03-29T02:51:08.210Z,91475.88
2018-03-29T02:51:57.376Z,91470.77
2018-03-29T02:52:46.435Z,91475.08
2018-03-29T02:53:35.491Z,91477.61
2018-03-29T02:54:24.581Z,91479.89
2018-03-29T02:55:13.642Z,91478.05
2018-03-29T02:56:02.705Z,91474.58
2018-03-29T02:56:51.773Z,91481.09
2018-03-29T02:57:40.837Z,91482.51
2018-03-29T02:58:29.912Z,91477.48
2018-03-29T02:59:18.966Z,91481.09
2018-03-29T03:00:08.063Z,91482.83
2018-03-29T03:00:57.123Z,91484.19
2018-03-29T03:01:46.189Z,91480.84
2018-03-29T03:02:35.245Z,91481.87
2018-03-29T03:03:24.305Z,91484.76
2018-03-29T03:04:13.394Z,91474.70
2018-03-29T03:05:02.449Z,91478.66
2018-03-29T03:05:51.684Z,91482.47
2018-03-29T03:06:40.749Z,91477.19
2018-03-29T03:07:29.810Z,91479.02
2018-03-29T03:08:18.860Z,91481.70
2018-03-29T03:09:07.937Z,91478.09
2018-03-29T03:09:56.998Z,91472.52
2018-03-29T03:10:46.061Z,91475.67
2018-03-29T03:11:35.294Z,91476.34
2018-03-29T03:12:24.358Z,91474.70
2018-03-29T03:13:13.453Z,91481.46
2018-03-29T03:14:02.514Z,91471.87
2018-03-29T03:14:51.613Z,91475.55
2018-03-29T03:15:40.656Z,91472.56
2018-03-29T03:16:29.710Z,91467.89
2018-03-29T03:17:18.767Z,91472.33
2018-03-29T03:18:07.848Z,91471.63
2018-03-29T03:18:56.973Z,91469.11
2018-03-29T03:19:46.032Z,91466.59
2018-03-29T03:20:35.088Z,91462.83
2018-03-29T03:21:24.244Z,91464.27
2018-03-29T03:22:13.300Z,91462.59
2018-03-29T03:23:02.587Z,91466.70
2018-03-29T03:23:51.641Z,91468.99
2018-03-29T03:24:40.721Z,91461.32
2018-03-29T03:25:29.773Z,91465.63
2018-03-29T03:26:18.827Z,91466.66
2018-03-29T03:27:07.909Z,91465.79
2018-03-29T03:27:56.964Z,91465.44
2018-03-29T03:28:46.018Z,91462.70
2018-03-29T03:29:35.073Z,91460.50
2018-03-29T03:30:24.168Z,91464.73
2018-03-29T03:31:13.226Z,91454.88
2018-03-29T03:32:02.302Z,91457.52
2018-03-29T03:32:51.459Z,91455.83
2018-03-29T03:33:40.529Z,91458.82
2018-03-29T03:34:29.597Z,91465.37
2018-03-29T03:35:18.681Z,91465.92
2018-03-29T03:36:07.802Z,91462.48
2018-03-29T03:36:56.954Z,91462.07
2018-03-29T03:37:46.018Z,91470.25
2018-03-29T03:38:35.072Z,91467.61
2018-03-29T03:39:24.130Z,91478.27
2018-03-29T03:40:13.185Z,91474.80
2018-03-29T03:41:02.241Z,91480.40
2018-03-29T03:41:51.296Z,91476.12
2018-03-29T03:42:40.396Z,91478.41
2018-03-29T03:43:29.466Z,91473.93
2018-03-29T03:44:18.564Z,91478.02
2018-03-29T03:45:07.618Z,91480.66
2018-03-29T03:45:56.670Z,91479.55
2018-03-29T03:46:45.717Z,91474.58
2018-03-29T03:47:34.771Z,91476.84
2018-03-29T03:48:23.832Z,91474.55
2018-03-29T03:49:12.906Z,91468.35
2018-03-29T03:50:03.086Z,91471.29
2018-03-29T03:50:52.158Z,91471.91
2018-03-29T03:51:41.216Z,91473.90
2018-03-29T03:52:30.270Z,91480.09
2018-03-29T03:53:19.329Z,91483.23
2018-03-29T03:54:08.443Z,91474.28
2018-03-29T03:54:57.496Z,91482.98
2018-03-29T03:55:46.554Z,91482.56
2018-03-29T03:56:35.634Z,91486.48
2018-03-29T03:57:24.689Z,91490.16
2018-03-29T03:58:13.794Z,91486.66
2018-03-29T03:59:02.852Z,91494.70
2018-03-29T03:59:51.903Z,91493.45
2018-03-29T04:00:40.961Z,91494.00
2018-03-29T04:01:30.054Z,91492.61
2018-03-29T04:02:19.177Z,91491.52
2018-03-29T04:03:08.291Z,91494.09
2018-03-29T04:03:57.353Z,91493.76
2018-03-29T04:04:46.405Z,91498.85
2018-03-29T04:05:35.461Z,91504.63
2018-03-29T04:06:24.612Z,91501.45
2018-03-29T04:07:13.674Z,91502.72
2018-03-29T04:08:02.724Z,91501.62
2018-03-29T04:08:51.872Z,91496.89
2018-03-29T04:09:40.940Z,91505.41
2018-03-29T04:10:30.067Z,91507.45
2018-03-29T04:11:19.141Z,91507.74
2018-03-29T04:12:08.204Z,91506.00
2018-03-29T04:12:57.295Z,91508.41
2018-03-29T04:13:46.345Z,91501.89
2018-03-29T04:14:35.556Z,91504.09
2018-03-29T04:15:24.613Z,91503.66
2018-03-29T04:16:13.665Z,91506.30
2018-03-29T04:17:02.734Z,91500.63
2018-03-29T04:17:51.793Z,91501.38
2018-03-29T04:18:41.102Z,91506.64
2018-03-29T04:19:30.225Z,91512.45
2018-03-29T04:20:19.335Z,91513.02
2018-03-29T04:21:08.405Z,91511.30
2018-03-29T04:21:57.509Z,91508.09
2018-03-29T04:22:46.568Z,91519.97
2018-03-29T04:23:35.633Z,91516.44
2018-03-29T04:24:24.793Z,91516.58
2018-03-29T04:25:13.859Z,91513.38
2018-03-29T04:26:02.925Z,91519.80
2018-03-29T04:26:51.992Z,91524.95
2018-03-29T04:27:41.050Z,91523.56
2018-03-29T04:28:30.128Z,91521.92
2018-03-29T04:29:19.189Z,91526.52
2018-03-29T04:30:08.360Z,91530.55
2018-03-29T04:30:57.423Z,91532.34
2018-03-29T04:31:46.517Z,91528.52
2018-03-29T04:32:35.584Z,91536.08
2018-03-29T04:33:24.728Z,91536.01
2018-03-29T04:34:13.789Z,91535.40
2018-03-29T04:35:02.868Z,91542.62
2018-03-29T04:35:51.935Z,91541.95
2018-03-29T04:36:40.998Z,91545.59
2018-03-29T04:37:30.087Z,91545.89
2018-03-29T04:38:19.141Z,91546.08
2018-03-29T04:39:09.080Z,91541.78
2018-03-29T04:39:58.140Z,91542.17
2018-03-29T04:40:47.196Z,91546.88
2018-03-29T04:41:36.257Z,91552.22
2018-03-29T04:42:25.313Z,91553.61
2018-03-29T04:43:14.361Z,91550.21
2018-03-29T04:44:03.562Z,91554.95
2018-03-29T04:44:52.631Z,91560.09
2018-03-29T04:45:41.684Z,91564.50
2018-03-29T04:46:30.736Z,91568.83
2018-03-29T04:47:19.814Z,91561.77
2018-03-29T04:48:08.868Z,91571.33
2018-03-29T04:48:57.926Z,91570.03
2018-03-29T04:49:47.068Z,91565.06
2018-03-29T04:50:36.124Z,91568.92
2018-03-29T04:51:25.206Z,91576.16
2018-03-29T04:52:14.611Z,91577.50
2018-03-29T04:53:03.668Z,91572.61
2018-03-29T04:53:52.729Z,91572.88
2018-03-29T04:54:41.796Z,91573.09
2018-03-29T04:55:30.984Z,91577.22
2018-03-29T04:56:20.060Z,91578.84
2018-03-29T04:57:09.120Z,91573.83
2018-03-29T04:57:58.184Z,91573.53
2018-03-29T04:58:47.241Z,91578.42
2018-03-29T04:59:36.485Z,91582.95
2018-03-29T05:00:25.544Z,91583.75
2018-03-29T05:01:14.597Z,91586.50
2018-03-29T05:02:03.657Z,91587.25
2018-03-29T05:02:52.717Z,91586.23
2018-03-29T05:03:41.780Z,91591.82
2018-03-29T05:04:30.832Z,91588.52
2018-03-29T05:05:19.926Z,91593.35
2018-03-29T05:06:08.980Z,91592.28
2018-03-29T05:06:58.021Z,91595.27
2018-03-29T05:07:47.138Z,91597.06
2018-03-29T05:08:36.249Z,91600.20
2018-03-29T05:09:25.339Z,91597.44
2018-03-29T05:10:14.373Z,91599.58
2018-03-29T05:11:03.448Z,91600.23
2018-03-29T05:11:52.532Z,91603.83
2018-03-29T05:12:41.577Z,91601.44
2018-03-29T05:13:30.621Z,91598.62
2018-03-29T05:14:19.680Z,91594.47
2018-03-29T05:15:08.720Z,91600.66
2018-03-29T05:15:57.766Z,91599.10
2018-03-29T05:16:46.857Z,91595.84
2018-03-29T05:17:36.062Z,91600.91
2018-03-29T05:18:25.109Z,91596.08
2018-03-29T05:19:14.160Z,91592.95
2018-03-29T05:20:03.223Z,91595.02
2018-03-29T05:20:52.277Z,91595.05
2018-03-29T05:21:41.326Z,91599.75
2018-03-29T05:22:30.463Z,91602.66
2018-03-29T05:23:19.520Z,91609.11
2018-03-29T05:24:08.662Z,91601.09
2018-03-29T05:24:57.750Z,91601.16
2018-03-29T05:25:46.799Z,91608.53
2018-03-29T05:26:38.626Z,91610.30
2018-03-29T05:27:27.693Z,91609.29
2018-03-29T05:28:16.756Z,91610.55
2018-03-29T05:29:05.808Z,91619.31
2018-03-29T05:29:54.900Z,91617.97
2018-03-29T05:30:43.951Z,91619.16
2018-03-29T05:31:33.039Z,91620.40
2018-03-29T05:32:22.095Z,91619.13
2018-03-29T05:33:11.158Z,91615.79
2018-03-29T05:34:00.218Z,91621.94
2018-03-29T05:34:49.269Z,91623.36
2018-03-29T05:35:38.422Z,91622.20
2018-03-29T05:36:27.466Z,91627.91
2018-03-29T05:37:16.526Z,91629.42
2018-03-29T05:38:05.573Z,91625.69
2018-03-29T05:38:54.623Z,91632.14
2018-03-29T05:39:43.667Z,91630.33
2018-03-29T05:40:32.846Z,91624.75
2018-03-29T05:41:21.921Z,91622.33
2018-03-29T05:42:10.966Z,91628.31
2018-03-29T05:43:00.018Z,91627.05
2018-03-29T05:43:49.071Z,91627.23
2018-03-29T05:44:38.129Z,91627.92
2018-03-29T05:45:27.180Z,91624.51
2018-03-29T05:46:16.290Z,91620.34
2018-03-29T05:47:05.350Z,91630.05
2018-03-29T05:47:54.405Z,91626.73
2018-03-29T05:48:43.453Z,91621.73
2018-03-29T05:49:32.499Z,91623.58
2018-03-29T05:50:21.548Z,91623.59
2018-03-29T05:51:10.592Z,91621.72
2018-03-29T05:51:59.705Z,91629.27
2018-03-29T05:52:48.753Z,91627.42
2018-03-29T05:53:37.846Z,91634.31
2018-03-29T05:54:26.887Z,91634.80
2018-03-29T05:55:15.927Z,91638.75
2018-03-29T05:56:05.029Z,91634.52
2018-03-29T05:56:54.050Z,91639.56
2018-03-29T05:57:43.221Z,91634.48
2018-03-29T05:58:32.360Z,91633.93
2018-03-29T05:59:21.408Z,91638.00
2018-03-29T06:00:10.478Z,91636.64
2018-03-29T06:00:59.534Z,91630.58
2018-03-29T06:01:48.718Z,91632.42
2018-03-29T06:02:37.769Z,91631.38
2018-03-29T06:03:26.824Z,91628.49
2018-03-29T06:04:15.954Z,91631.48
2018-03-29T06:05:04.996Z,91627.20
2018-03-29T06:05:54.041Z,91626.94
2018-03-29T06:06:43.120Z,91628.59
2018-03-29T06:07:32.182Z,91629.03
2018-03-29T06:08:21.244Z,91630.91
2018-03-29T06:09:10.409Z,91631.03
2018-03-29T06:09:59.526Z,91628.83
2018-03-29T06:10:48.587Z,91631.03
2018-03-29T06:11:37.646Z,91635.11
2018-03-29T06:12:26.699Z,91632.08
2018-03-29T06:13:15.752Z,91636.05
2018-03-29T06:14:07.523Z,91631.80
2018-03-29T06:14:56.601Z,91629.94
2018-03-29T06:15:45.781Z,91633.75
2018-03-29T06:16:40.400Z,91631.78
2018-03-29T06:17:29.454Z,91633.30
2018-03-29T06:18:18.521Z,91634.33
2018-03-29T06:19:09.497Z,91636.80
2018-03-29T06:19:58.644Z,91637.66
2018-03-29T06:20:47.689Z,91640.35
2018-03-29T06:21:36.780Z,91640.48
2018-03-29T06:22:25.824Z,91641.34
2018-03-29T06:23:14.903Z,91639.98
2018-03-29T06:24:03.991Z,91640.49
2018-03-29T06:24:53.046Z,91642.01
2018-03-29T06:25:42.133Z,91638.83
2018-03-29T06:26:31.199Z,91636.03
2018-03-29T06:27:20.244Z,91635.68
2018-03-29T06:28:09.296Z,91637.64
2018-03-29T06:28:58.341Z,91635.06
2018-03-29T06:29:47.394Z,91636.66
2018-03-29T06:30:36.450Z,91632.47
2018-03-29T06:31:25.546Z,91633.62
2018-03-29T06:32:14.588Z,91632.11
2018-03-29T06:33:03.640Z,91637.32
2018-03-29T06:33:52.708Z,91638.06
2018-03-29T06:34:41.757Z,91637.80
2018-03-29T06:35:30.813Z,91645.55
2018-03-29T06:36:19.877Z,91641.53
2018-03-29T06:37:09.057Z,91637.00
2018-03-29T06:37:58.127Z,91637.62
2018-03-29T06:38:47.190Z,91642.77
2018-03-29T06:39:36.239Z,91640.37
2018-03-29T06:40:25.399Z,91634.77
2018-03-29T06:41:14.442Z,91634.33
2018-03-29T06:42:03.485Z,91641.08
2018-03-29T06:42:52.531Z,91644.19
2018-03-29T06:43:41.591Z,91651.47
2018-03-29T06:44:30.651Z,91649.52
2018-03-29T06:45:19.709Z,91653.42
2018-03-29T06:46:08.821Z,91650.31
2018-03-29T06:46:57.879Z,91644.70
2018-03-29T06:47:46.940Z,91654.31
2018-03-29T06:48:35.993Z,91652.86
2018-03-29T06:49:25.046Z,91650.69
2018-03-29T06:50:14.089Z,91654.59
2018-03-29T06:51:03.322Z,91652.28
2018-03-29T06:51:52.368Z,91653.02
2018-03-29T06:52:41.464Z,91648.98
2018-03-29T06:53:30.506Z,91651.48
2018-03-29T06:54:19.562Z,91654.55
2018-03-29T06:55:08.609Z,91656.73
2018-03-29T06:55:57.763Z,91656.64
2018-03-29T06:56:46.823Z,91652.56
2018-03-29T06:57:35.877Z,91653.89
2018-03-29T06:58:24.944Z,91654.98
2018-03-29T06:59:13.985Z,91657.09
2018-03-29T07:00:03.034Z,91660.34
2018-03-29T07:00:52.136Z,91662.63
2018-03-29T07:01:41.229Z,91661.25
2018-03-29T07:02:30.328Z,91663.70
2018-03-29T07:03:19.409Z,91663.25
2018-03-29T07:04:08.458Z,91665.34
2018-03-29T07:04:57.497Z,91660.41
2018-03-29T07:05:46.550Z,91663.77
2018-03-29T07:06:35.587Z,91669.04
2018-03-29T07:07:25.302Z,91667.08
2018-03-29T07:08:14.352Z,91669.28
2018-03-29T07:09:03.465Z,91673.33
2018-03-29T07:09:52.533Z,91680.02
2018-03-29T07:10:41.642Z,91677.71
2018-03-29T07:11:30.709Z,91680.84
2018-03-29T07:12:19.753Z,91683.88
2018-03-29T07:13:08.858Z,91679.78
2018-03-29T07:13:57.913Z,91687.15
2018-03-29T07:14:46.966Z,91687.20
2018-03-29T07:15:36.126Z,91682.66
2018-03-29T07:16:25.173Z,91690.09
2018-03-29T07:17:14.223Z,91687.41
2018-03-29T07:18:03.328Z,91684.48
2018-03-29T07:18:52.379Z,91691.25
2018-03-29T07:19:41.461Z,91697.10
2018-03-29T07:20:30.510Z,91696.97
2018-03-29T07:21:19.872Z,91698.44
2018-03-29T07:22:08.921Z,91695.85
2018-03-29T07:22:57.967Z,91695.63
2018-03-29T07:23:47.011Z,91701.69
2018-03-29T07:24:36.262Z,91701.59
2018-03-29T07:25:25.308Z,91698.81
2018-03-29T07:26:14.415Z,91696.64
2018-03-29T07:27:03.469Z,91698.65
2018-03-29T07:27:52.515Z,91707.16
2018-03-29T07:28:41.619Z,91704.44
2018-03-29T07:29:30.674Z,91708.03
2018-03-29T07:30:19.728Z,91709.02
2018-03-29T07:31:08.801Z,91712.48
2018-03-29T07:31:57.898Z,91714.70
2018-03-29T07:32:46.949Z,91718.56
2018-03-29T07:33:36.006Z,91718.62
2018-03-29T07:34:25.052Z,91714.25
2018-03-29T07:35:14.263Z,91716.13
2018-03-29T07:36:03.324Z,91716.87
2018-03-29T07:36:52.374Z,91718.29
2018-03-29T07:37:41.424Z,91717.87
2018-03-29T07:38:30.484Z,91716.52
2018-03-29T07:39:19.535Z,91720.11
2018-03-29T07:40:08.621Z,91719.27
2018-03-29T07:40:57.713Z,91716.92
2018-03-29T07:41:46.763Z,91718.88
2018-03-29T07:42:35.808Z,91715.98
2018-03-29T07:43:24.848Z,91720.34
2018-03-29T07:44:13.949Z,91720.28
2018-03-29T07:45:02.986Z,91716.63
2018-03-29T07:45:52.036Z,91720.41
2018-03-29T07:46:41.116Z,91716.41
2018-03-29T07:47:30.168Z,91717.81
2018-03-29T07:48:19.220Z,91722.45
2018-03-29T07:49:08.268Z,91714.16
2018-03-29T07:49:57.308Z,91719.98
2018-03-29T07:50:46.358Z,91719.81
2018-03-29T07:51:35.403Z,91710.27
2018-03-29T07:52:27.600Z,91713.97
2018-03-29T07:53:16.647Z,91709.16
2018-03-29T07:54:05.718Z,91720.89
2018-03-29T07:54:54.775Z,91720.50
2018-03-29T07:55:43.823Z,91716.41
2018-03-29T07:56:32.867Z,91720.70
2018-03-29T07:57:21.913Z,91719.67
2018-03-29T07:58:11.002Z,91728.16
2018-03-29T07:59:00.124Z,91720.72
2018-03-29T07:59:49.207Z,91725.02
2018-03-29T08:00:38.259Z,91722.56
2018-03-29T08:01:27.301Z,91723.84
2018-03-29T08:02:16.348Z,91724.98
2018-03-29T08:03:05.388Z,91723.63
2018-03-29T08:03:54.476Z,91721.83
2018-03-29T08:04:43.524Z,91724.29
2018-03-29T08:05:32.569Z,91720.29
2018-03-29T08:06:21.693Z,91724.78
2018-03-29T08:07:10.743Z,91724.02
2018-03-29T08:07:59.815Z,91723.61
2018-03-29T08:08:48.888Z,91722.28
2018-03-29T08:09:37.933Z,91720.42
2018-03-29T08:10:27.133Z,91727.20
2018-03-29T08:11:16.178Z,91725.35
2018-03-29T08:12:05.237Z,91720.13
2018-03-29T08:12:54.288Z,91726.14
2018-03-29T08:13:43.338Z,91722.19
2018-03-29T08:14:32.410Z,91724.31
2018-03-29T08:15:21.510Z,91719.28
2018-03-29T08:16:10.577Z,91728.33
2018-03-29T08:17:01.340Z,91721.48
2018-03-29T08:17:50.656Z,91724.24
2018-03-29T08:18:39.709Z,91719.71
2018-03-29T08:19:28.788Z,91724.30
2018-03-29T08:20:17.838Z,91716.96
2018-03-29T08:21:06.889Z,91717.88
2018-03-29T08:21:55.940Z,91722.41
2018-03-29T08:22:45.026Z,91717.38
2018-03-29T08:23:34.073Z,91719.08
2018-03-29T08:24:23.123Z,91719.50
2018-03-29T08:25:12.171Z,91725.37
2018-03-29T08:26:01.221Z,91720.20
2018-03-29T08:26:50.285Z,91723.75
2018-03-29T08:27:39.339Z,91725.66
2018-03-29T08:28:28.558Z,91721.55
2018-03-29T08:29:17.613Z,91722.22
2018-03-29T08:30:06.657Z,91724.26
2018-03-29T08:30:55.706Z,91721.15
2018-03-29T08:31:44.760Z,91724.09
2018-03-29T08:32:33.809Z,91721.90
2018-03-29T08:33:22.855Z,91723.84
2018-03-29T08:34:12.073Z,91722.72
2018-03-29T08:35:01.123Z,91723.47
2018-03-29T08:35:50.177Z,91720.02
2018-03-29T08:36:39.236Z,91727.27
2018-03-29T08:37:28.339Z,91725.52
2018-03-29T08:38:17.379Z,91721.28
2018-03-29T08:39:06.431Z,91720.06
2018-03-29T08:39:55.767Z,91723.53
2018-03-29T08:40:44.809Z,91720.42
2018-03-29T08:41:33.855Z,91721.80
2018-03-29T08:42:22.901Z,91723.91
2018-03-29T08:43:11.952Z,91717.52
2018-03-29T08:44:01.001Z,91721.34
2018-03-29T08:44:50.133Z,91715.36
2018-03-29T08:45:39.250Z,91715.53
2018-03-29T08:46:28.300Z,91714.93
2018-03-29T08:47:17.352Z,91714.94
2018-03-29T08:48:06.513Z,91716.78
2018-03-29T08:48:55.583Z,91715.36
2018-03-29T08:49:44.639Z,91709.75
2018-03-29T08:50:33.698Z,91712.81
2018-03-29T08:51:22.753Z,91712.53
2018-03-29T08:52:11.949Z,91715.78
2018-03-29T08:53:01.017Z,91707.72
2018-03-29T08:53:50.068Z,91708.90
2018-03-29T08:54:39.107Z,91707.08
2018-03-29T08:55:28.239Z,91709.17
2018-03-29T08:56:17.334Z,91707.72
2018-03-29T08:57:06.398Z,91707.08
2018-03-29T08:57:55.548Z,91702.64
2018-03-29T08:58:44.607Z,91711.23
2018-03-29T08:59:33.662Z,91704.95
2018-03-29T09:00:22.764Z,91706.42
2018-03-29T09:01:11.816Z,91705.09
2018-03-29T09:02:00.874Z,91706.41
2018-03-29T09:02:49.924Z,91707.36
2018-03-29T09:03:38.974Z,91708.05
2018-03-29T09:04:28.122Z,91708.13
2018-03-29T09:05:17.241Z,91701.20
2018-03-29T09:06:06.297Z,91701.43
2018-03-29T09:06:55.352Z,91701.05
2018-03-29T09:07:44.433Z,91700.50
2018-03-29T09:08:33.481Z,91700.09
2018-03-29T09:09:22.563Z,91705.72
2018-03-29T09:10:11.614Z,91703.23
2018-03-29T09:11:00.790Z,91703.23
2018-03-29T09:11:49.848Z,91708.65
2018-03-29T09:12:38.901Z,91707.19
2018-03-29T09:13:27.955Z,91702.23
2018-03-29T09:14:17.005Z,91706.06
2018-03-29T09:15:06.089Z,91706.57
2018-03-29T09:15:55.155Z,91704.30
2018-03-29T09:16:44.244Z,91712.67
2018-03-29T09:17:33.292Z,91708.22
2018-03-29T09:18:22.363Z,91703.54
2018-03-29T09:19:11.426Z,91710.59
2018-03-29T09:20:00.489Z,91706.09
2018-03-29T09:20:49.549Z,91701.95
2018-03-29T09:21:38.604Z,91702.53
2018-03-29T09:22:27.804Z,91700.58
2018-03-29T09:23:16.911Z,91703.85
2018-03-29T09:24:05.973Z,91705.52
2018-03-29T09:24:55.025Z,91708.57
2018-03-29T09:25:44.077Z,91705.91
2018-03-29T09:26:33.141Z,91702.13
2018-03-29T09:27:22.223Z,91698.11
2018-03-29T09:28:11.279Z,91698.48
2018-03-29T09:29:00.380Z,91700.53
2018-03-29T09:29:49.437Z,91698.56
2018-03-29T09:30:38.493Z,91701.67
2018-03-29T09:31:27.545Z,91699.16
2018-03-29T09:32:16.592Z,91702.30
2018-03-29T09:33:05.688Z,91703.28
2018-03-29T09:33:54.809Z,91703.91
2018-03-29T09:34:43.955Z,91703.48
2018-03-29T09:35:33.004Z,91710.23
2018-03-29T09:36:22.059Z,91706.75
2018-03-29T09:37:11.137Z,91706.22